createdAt,value
2019-04-06T00:00:50.265Z,8.49
2019-04-06T00:01:50.265Z,8.44
2019-04-06T00:02:50.254Z,8.45
2019-04-06T00:03:52.108Z,8.45
2019-04-06T00:04:50.246Z,8.44
2019-04-06T00:05:50.237Z,8.46
2019-04-06T00:06:50.226Z,8.52
2019-04-06T00:07:50.220Z,8.52
2019-04-06T00:08:50.214Z,8.53
2019-04-06T00:09:50.204Z,8.51
2019-04-06T00:10:50.201Z,8.51
2019-04-06T00:12:50.188Z,8.53
2019-04-06T00:13:50.184Z,8.53
2019-04-06T00:14:50.170Z,8.48
2019-04-06T00:15:50.164Z,8.45
2019-04-06T00:17:23.389Z,8.52
2019-04-06T00:17:50.153Z,8.49
2019-04-06T00:18:50.350Z,8.56
2019-04-06T00:19:50.142Z,8.51
2019-04-06T00:20:50.135Z,8.58
2019-04-06T00:21:50.127Z,8.53
2019-04-06T00:22:50.116Z,8.58
2019-04-06T00:23:50.144Z,8.55
2019-04-06T00:24:50.105Z,8.49
2019-04-06T00:25:50.105Z,8.53
2019-04-06T00:26:50.093Z,8.53
2019-04-06T00:27:50.089Z,8.52
2019-04-06T00:28:50.075Z,8.49
2019-04-06T00:29:50.076Z,8.51
2019-04-06T00:30:50.067Z,8.55
2019-04-06T00:31:50.072Z,8.48
2019-04-06T00:32:50.052Z,8.48
2019-04-06T00:33:50.048Z,8.51
2019-04-06T00:34:50.037Z,8.49
2019-04-06T00:35:50.033Z,8.52
2019-04-06T00:36:50.028Z,8.48
2019-04-06T00:37:50.022Z,8.53
2019-04-06T00:38:50.009Z,8.52
2019-04-06T00:39:50.000Z,8.48
2019-04-06T00:40:49.995Z,8.42
2019-04-06T00:41:49.991Z,8.44
2019-04-06T00:42:49.979Z,8.51
2019-04-06T00:43:49.978Z,8.33
2019-04-06T00:44:49.969Z,8.49
2019-04-06T00:45:49.963Z,8.48
2019-04-06T00:46:49.956Z,8.41
2019-04-06T00:47:49.951Z,8.33
2019-04-06T00:48:49.939Z,8.34
2019-04-06T00:49:50.135Z,8.33
2019-04-06T00:51:49.919Z,8.41
2019-04-06T00:52:49.919Z,8.33
2019-04-06T00:53:49.909Z,8.37
2019-04-06T00:54:49.899Z,8.33
2019-04-06T00:55:55.619Z,8.36
2019-04-06T00:57:50.086Z,8.38
2019-04-06T00:58:49.882Z,8.34
2019-04-06T00:59:50.411Z,8.34
2019-04-06T01:00:49.863Z,8.36
2019-04-06T01:02:49.849Z,8.36
2019-04-06T01:03:49.843Z,8.41
2019-04-06T01:04:49.838Z,8.46
2019-04-06T01:05:49.831Z,8.33
2019-04-06T01:06:49.838Z,8.33
2019-04-06T01:07:50.013Z,8.34
2019-04-06T01:08:49.806Z,8.34
2019-04-06T01:09:49.800Z,8.42
2019-04-06T01:10:49.798Z,8.44
2019-04-06T01:11:49.783Z,8.30
2019-04-06T01:13:49.777Z,8.33
2019-04-06T01:14:49.768Z,8.36
2019-04-06T01:16:49.752Z,8.33
2019-04-06T01:17:49.953Z,8.30
2019-04-06T01:18:49.827Z,8.28
2019-04-06T01:19:49.731Z,8.33
2019-04-06T01:20:49.731Z,8.41
2019-04-06T01:21:49.723Z,8.33
2019-04-06T01:22:49.711Z,8.37
2019-04-06T01:23:49.705Z,8.34
2019-04-06T01:24:49.898Z,8.36
2019-04-06T01:25:49.689Z,8.34
2019-04-06T01:26:49.684Z,8.34
2019-04-06T01:28:49.683Z,8.26
2019-04-06T01:29:49.695Z,8.33
2019-04-06T01:30:49.659Z,8.23
2019-04-06T01:31:49.669Z,8.30
2019-04-06T01:32:49.641Z,8.31
2019-04-06T01:33:49.640Z,8.34
2019-04-06T01:34:49.674Z,8.33
2019-04-06T01:35:49.622Z,8.36
2019-04-06T01:36:49.620Z,8.34
2019-04-06T01:37:49.610Z,8.38
2019-04-06T01:38:49.606Z,8.37
2019-04-06T01:39:49.594Z,8.33
2019-04-06T01:40:49.592Z,8.34
2019-04-06T01:41:49.582Z,8.37
2019-04-06T01:42:49.577Z,8.30
2019-04-06T01:43:49.570Z,8.34
2019-04-06T01:44:49.653Z,8.36
2019-04-06T01:45:49.560Z,8.26
2019-04-06T01:46:49.548Z,8.38
2019-04-06T01:47:49.745Z,8.36
2019-04-06T01:48:49.536Z,8.27
2019-04-06T01:49:49.598Z,8.30
2019-04-06T01:50:49.523Z,8.34
2019-04-06T01:51:49.519Z,8.41
2019-04-06T01:52:49.507Z,8.33
2019-04-06T01:53:49.500Z,8.30
2019-04-06T01:54:49.499Z,8.36
2019-04-06T01:55:49.488Z,8.38
2019-04-06T01:56:49.485Z,8.33
2019-04-06T01:57:49.477Z,8.24
2019-04-06T01:58:49.476Z,8.26
2019-04-06T01:59:49.482Z,8.26
2019-04-06T02:00:49.534Z,8.20
2019-04-06T02:01:49.448Z,8.27
2019-04-06T02:02:49.441Z,8.30
2019-04-06T02:03:49.436Z,8.33
2019-04-06T02:04:49.428Z,8.23
2019-04-06T02:05:49.420Z,8.20
2019-04-06T02:06:49.417Z,8.36
2019-04-06T02:07:49.413Z,8.45
2019-04-06T02:08:49.397Z,8.37
2019-04-06T02:09:49.391Z,8.37
2019-04-06T02:10:49.390Z,8.27
2019-04-06T02:11:49.441Z,8.26
2019-04-06T02:13:49.374Z,8.26
2019-04-06T02:14:49.568Z,8.19
2019-04-06T02:15:49.357Z,8.23
2019-04-06T02:16:49.342Z,8.18
2019-04-06T02:17:49.343Z,8.24
2019-04-06T02:18:49.336Z,8.24
2019-04-06T02:19:49.328Z,8.28
2019-04-06T02:20:49.330Z,8.24
2019-04-06T02:21:49.311Z,8.19
2019-04-06T02:22:49.308Z,8.31
2019-04-06T02:23:49.298Z,8.28
2019-04-06T02:24:49.291Z,8.31
2019-04-06T02:25:49.322Z,8.28
2019-04-06T02:26:49.277Z,8.36
2019-04-06T02:27:49.274Z,8.33
2019-04-06T02:28:49.263Z,8.36
2019-04-06T02:29:49.258Z,8.48
2019-04-06T02:30:49.247Z,8.38
2019-04-06T02:32:49.236Z,8.31
2019-04-06T02:33:49.234Z,8.38
2019-04-06T02:34:49.296Z,8.37
2019-04-06T02:35:49.420Z,8.38
2019-04-06T02:36:49.416Z,8.36
2019-04-06T02:37:49.202Z,8.37
2019-04-06T02:38:49.201Z,8.38
2019-04-06T02:39:49.200Z,8.31
2019-04-06T02:40:49.186Z,8.37
2019-04-06T02:41:49.176Z,8.37
2019-04-06T02:42:49.172Z,8.34
2019-04-06T02:43:49.162Z,8.34
2019-04-06T02:44:49.244Z,8.37
2019-04-06T02:45:49.246Z,8.41
2019-04-06T02:46:49.144Z,8.37
2019-04-06T02:47:49.333Z,8.33
2019-04-06T02:48:49.181Z,8.44
2019-04-06T02:49:49.121Z,8.42
2019-04-06T02:50:49.117Z,8.42
2019-04-06T02:51:49.230Z,8.37
2019-04-06T02:52:49.101Z,8.24
2019-04-06T02:53:49.093Z,8.33
2019-04-06T02:54:49.093Z,8.34
2019-04-06T02:55:49.088Z,8.31
2019-04-06T02:56:49.075Z,8.33
2019-04-06T02:58:49.067Z,8.33
2019-04-06T02:59:49.053Z,8.36
2019-04-06T03:00:49.049Z,8.28
2019-04-06T03:02:49.037Z,8.34
2019-04-06T03:03:49.025Z,8.37
2019-04-06T03:04:49.019Z,8.28
2019-04-06T03:05:49.013Z,8.36
2019-04-06T03:06:49.052Z,8.30
2019-04-06T03:07:49.198Z,8.36
2019-04-06T03:08:48.993Z,8.33
2019-04-06T03:09:48.993Z,8.38
2019-04-06T03:10:48.980Z,8.38
2019-04-06T03:11:48.972Z,8.31
2019-04-06T03:12:48.965Z,8.34
2019-04-06T03:13:49.026Z,8.37
2019-04-06T03:14:49.148Z,8.34
2019-04-06T03:15:48.943Z,8.33
2019-04-06T03:16:48.939Z,8.34
2019-04-06T03:17:48.956Z,8.36
2019-04-06T03:18:48.955Z,8.37
2019-04-06T03:20:48.908Z,8.37
2019-04-06T03:21:48.921Z,8.38
2019-04-06T03:22:48.891Z,8.34
2019-04-06T03:23:51.259Z,8.37
2019-04-06T03:24:48.883Z,8.41
2019-04-06T03:27:00.730Z,8.48
2019-04-06T03:27:48.861Z,8.44
2019-04-06T03:28:48.906Z,8.36
2019-04-06T03:29:57.591Z,8.36
2019-04-06T03:30:49.058Z,8.44
2019-04-06T03:32:49.088Z,8.48
2019-04-06T03:33:49.024Z,8.56
2019-04-06T03:34:48.813Z,8.53
2019-04-06T03:35:50.303Z,8.58
2019-04-06T03:36:49.000Z,8.53
2019-04-06T03:37:48.799Z,8.56
2019-04-06T03:38:48.789Z,8.69
2019-04-06T03:39:48.793Z,8.67
2019-04-06T03:40:48.769Z,8.61
2019-04-06T03:41:48.764Z,8.70
2019-04-06T03:42:48.862Z,8.60
2019-04-06T03:43:48.757Z,8.66
2019-04-06T03:44:48.748Z,8.60
2019-04-06T03:45:48.740Z,8.71
2019-04-06T03:46:48.725Z,8.67
2019-04-06T03:47:48.726Z,8.73
2019-04-06T03:48:48.798Z,8.66
2019-04-06T03:49:48.715Z,8.61
2019-04-06T03:50:48.848Z,8.69
2019-04-06T03:51:48.696Z,8.64
2019-04-06T03:53:48.713Z,8.70
2019-04-06T03:54:48.879Z,8.69
2019-04-06T03:55:48.668Z,8.67
2019-04-06T03:56:48.659Z,8.64
2019-04-06T03:57:48.657Z,8.73
2019-04-06T03:58:48.645Z,8.71
2019-04-06T03:59:48.665Z,8.73
2019-04-06T04:00:48.634Z,8.64
2019-04-06T04:01:48.716Z,8.71
2019-04-06T04:03:48.619Z,8.63
2019-04-06T04:05:48.598Z,8.63
2019-04-06T04:06:48.595Z,8.71
2019-04-06T04:07:48.785Z,8.67
2019-04-06T04:08:48.577Z,8.63
2019-04-06T04:09:48.575Z,8.73
2019-04-06T04:10:48.569Z,8.70
2019-04-06T04:11:48.557Z,8.69
2019-04-06T04:12:48.769Z,8.67
2019-04-06T04:13:48.844Z,8.78
2019-04-06T04:14:48.540Z,8.70
2019-04-06T04:15:48.535Z,8.74
2019-04-06T04:16:48.525Z,8.71
2019-04-06T04:17:48.526Z,8.74
2019-04-06T04:18:48.550Z,8.70
2019-04-06T04:19:48.545Z,8.73
2019-04-06T04:20:48.503Z,8.74
2019-04-06T04:21:48.500Z,8.78
2019-04-06T04:22:48.724Z,8.70
2019-04-06T04:23:48.562Z,8.71
2019-04-06T04:24:48.673Z,8.76
2019-04-06T04:25:48.469Z,8.69
2019-04-06T04:26:48.644Z,8.74
2019-04-06T04:28:48.448Z,8.78
2019-04-06T04:29:48.434Z,8.82
2019-04-06T04:30:48.623Z,8.85
2019-04-06T04:31:48.629Z,8.91
2019-04-06T04:32:48.415Z,8.87
2019-04-06T04:33:48.417Z,9.02
2019-04-06T04:34:48.606Z,8.95
2019-04-06T04:35:48.400Z,8.91
2019-04-06T04:36:48.392Z,8.97
2019-04-06T04:38:21.610Z,8.95
2019-04-06T04:38:48.379Z,8.99
2019-04-06T04:39:48.374Z,8.88
2019-04-06T04:40:48.363Z,9.02
2019-04-06T04:41:48.415Z,9.00
2019-04-06T04:42:48.351Z,8.99
2019-04-06T04:43:48.342Z,8.95
2019-04-06T04:44:48.404Z,8.95
2019-04-06T04:45:48.531Z,9.04
2019-04-06T04:46:48.517Z,8.99
2019-04-06T04:47:50.135Z,9.08
2019-04-06T04:48:48.307Z,9.02
2019-04-06T04:49:48.300Z,9.06
2019-04-06T04:50:48.297Z,9.08
2019-04-06T04:51:48.287Z,9.03
2019-04-06T04:52:48.287Z,9.04
2019-04-06T04:53:48.429Z,9.02
2019-04-06T04:54:48.273Z,9.04
2019-04-06T04:55:48.261Z,9.04
2019-04-06T04:56:48.369Z,9.06
2019-04-06T04:57:48.253Z,9.02
2019-04-06T04:58:48.247Z,9.02
2019-04-06T04:59:48.244Z,9.00
2019-04-06T05:00:48.243Z,9.03
2019-04-06T05:02:48.215Z,9.00
2019-04-06T05:03:48.215Z,9.02
2019-04-06T05:04:48.394Z,9.00
2019-04-06T05:05:48.196Z,9.00
2019-04-06T05:06:48.191Z,9.03
2019-04-06T05:07:48.342Z,9.02
2019-04-06T05:09:48.168Z,8.91
2019-04-06T05:10:48.159Z,8.95
2019-04-06T05:11:49.131Z,8.91
2019-04-06T05:12:48.148Z,9.10
2019-04-06T05:13:48.152Z,9.03
2019-04-06T05:14:48.137Z,9.00
2019-04-06T05:15:48.131Z,9.08
2019-04-06T05:16:48.123Z,9.03
2019-04-06T05:17:48.115Z,9.06
2019-04-06T05:18:48.110Z,9.08
2019-04-06T05:19:48.307Z,9.08
2019-04-06T05:20:48.095Z,9.10
2019-04-06T05:21:48.088Z,9.13
2019-04-06T05:22:48.086Z,9.14
2019-04-06T05:23:48.124Z,9.14
2019-04-06T05:24:48.322Z,9.10
2019-04-06T05:25:48.065Z,9.06
2019-04-06T05:26:48.191Z,9.13
2019-04-06T05:27:52.560Z,9.11
2019-04-06T05:29:48.036Z,9.11
2019-04-06T05:30:48.027Z,9.13
2019-04-06T05:32:48.016Z,9.18
2019-04-06T05:33:48.047Z,9.31
2019-04-06T05:34:48.008Z,9.29
2019-04-06T05:35:47.998Z,9.23
2019-04-06T05:36:47.989Z,9.18
2019-04-06T05:37:47.988Z,9.26
2019-04-06T05:38:47.976Z,9.19
2019-04-06T05:39:47.970Z,9.31
2019-04-06T05:40:47.961Z,9.22
2019-04-06T05:41:50.344Z,9.28
2019-04-06T05:42:47.949Z,9.28
2019-04-06T05:43:47.942Z,9.36
2019-04-06T05:44:47.937Z,9.25
2019-04-06T05:46:47.927Z,9.39
2019-04-06T05:47:47.917Z,9.26
2019-04-06T05:48:47.909Z,9.31
2019-04-06T05:49:47.973Z,9.31
2019-04-06T05:51:47.897Z,9.32
2019-04-06T05:52:47.887Z,9.36
2019-04-06T05:53:47.883Z,9.40
2019-04-06T05:54:47.963Z,9.55
2019-04-06T05:55:48.016Z,9.51
2019-04-06T05:56:47.863Z,9.48
2019-04-06T05:57:47.856Z,9.51
2019-04-06T05:58:47.850Z,9.50
2019-04-06T05:59:47.842Z,9.62
2019-04-06T06:00:47.848Z,9.62
2019-04-06T06:01:49.028Z,9.65
2019-04-06T06:02:47.830Z,9.72
2019-04-06T06:03:47.822Z,9.66
2019-04-06T06:04:47.813Z,9.66
2019-04-06T06:05:47.810Z,9.65
2019-04-06T06:06:47.802Z,9.65
2019-04-06T06:07:48.013Z,9.73
2019-04-06T06:08:47.795Z,9.73
2019-04-06T06:09:47.781Z,9.62
2019-04-06T06:11:20.982Z,9.72
2019-04-06T06:11:47.772Z,9.73
2019-04-06T06:12:47.817Z,9.59
2019-04-06T06:13:47.810Z,9.64
2019-04-06T06:14:47.752Z,9.66
2019-04-06T06:15:47.750Z,9.64
2019-04-06T06:16:47.856Z,9.69
2019-04-06T06:17:47.733Z,9.69
2019-04-06T06:18:47.726Z,9.79
2019-04-06T06:19:47.722Z,9.83
2019-04-06T06:21:47.708Z,9.82
2019-04-06T06:22:47.967Z,9.77
2019-04-06T06:24:47.728Z,9.89
2019-04-06T06:25:47.735Z,9.73
2019-04-06T06:26:47.685Z,9.76
2019-04-06T06:27:47.676Z,9.76
2019-04-06T06:28:47.667Z,9.83
2019-04-06T06:29:47.742Z,9.76
2019-04-06T06:30:47.661Z,9.94
2019-04-06T06:31:47.652Z,9.79
2019-04-06T06:32:47.650Z,9.80
2019-04-06T06:33:47.774Z,9.86
2019-04-06T06:34:47.637Z,9.83
2019-04-06T06:35:47.632Z,9.84
2019-04-06T06:36:47.662Z,9.89
2019-04-06T06:37:47.617Z,9.84
2019-04-06T06:38:47.616Z,9.82
2019-04-06T06:39:47.610Z,9.89
2019-04-06T06:40:47.752Z,9.87
2019-04-06T06:41:47.593Z,10.01
2019-04-06T06:42:47.604Z,10.04
2019-04-06T06:43:47.583Z,10.04
2019-04-06T06:44:47.598Z,10.13
2019-04-06T06:45:47.577Z,10.16
2019-04-06T06:46:47.778Z,10.22
2019-04-06T06:47:47.602Z,10.13
2019-04-06T06:48:47.555Z,10.19
2019-04-06T06:49:47.630Z,10.20
2019-04-06T06:50:47.542Z,10.30
2019-04-06T06:51:47.544Z,10.19
2019-04-06T06:53:47.887Z,10.22
2019-04-06T06:54:47.541Z,10.28
2019-04-06T06:55:47.515Z,10.23
2019-04-06T06:56:47.682Z,10.30
2019-04-06T06:57:47.508Z,10.37
2019-04-06T06:58:47.506Z,10.34
2019-04-06T06:59:47.496Z,10.41
2019-04-06T07:00:47.512Z,10.42
2019-04-06T07:02:47.481Z,10.48
2019-04-06T07:03:47.679Z,10.46
2019-04-06T07:04:47.470Z,10.59
2019-04-06T07:06:47.456Z,10.68
2019-04-06T07:07:47.522Z,10.49
2019-04-06T07:08:47.449Z,10.64
2019-04-06T07:09:47.452Z,10.69
2019-04-06T07:11:47.442Z,10.84
2019-04-06T07:12:47.637Z,10.86
2019-04-06T07:13:47.430Z,10.84
2019-04-06T07:14:47.430Z,10.86
2019-04-06T07:15:47.413Z,10.92
2019-04-06T07:16:47.412Z,10.96
2019-04-06T07:17:47.564Z,11.02
2019-04-06T07:18:47.406Z,11.04
2019-04-06T07:19:47.398Z,11.07
2019-04-06T07:20:47.396Z,11.08
2019-04-06T07:21:47.389Z,11.14
2019-04-06T07:22:47.670Z,11.14
2019-04-06T07:23:47.394Z,11.25
2019-04-06T07:24:47.373Z,11.33
2019-04-06T07:25:56.891Z,11.30
2019-04-06T07:26:47.780Z,11.33
2019-04-06T07:27:47.364Z,11.32
2019-04-06T07:28:47.357Z,11.37
2019-04-06T07:29:47.352Z,11.43
2019-04-06T07:31:47.343Z,11.37
2019-04-06T07:32:47.341Z,11.41
2019-04-06T07:33:47.335Z,11.36
2019-04-06T07:34:47.334Z,11.33
2019-04-06T07:35:47.330Z,11.43
2019-04-06T07:36:47.325Z,11.44
2019-04-06T07:37:47.322Z,11.40
2019-04-06T07:38:47.309Z,11.43
2019-04-06T07:39:47.311Z,11.40
2019-04-06T07:40:47.305Z,11.47
2019-04-06T07:41:47.504Z,11.40
2019-04-06T07:42:47.296Z,11.40
2019-04-06T07:43:47.293Z,11.35
2019-04-06T07:44:47.290Z,11.33
2019-04-06T07:45:47.501Z,11.40
2019-04-06T07:46:47.281Z,11.43
2019-04-06T07:48:47.270Z,11.44
2019-04-06T07:49:47.263Z,11.43
2019-04-06T07:50:47.262Z,11.37
2019-04-06T07:51:47.260Z,11.36
2019-04-06T07:52:47.512Z,11.33
2019-04-06T07:53:47.246Z,11.44
2019-04-06T07:54:47.241Z,11.37
2019-04-06T07:55:47.238Z,11.41
2019-04-06T07:56:47.236Z,11.43
2019-04-06T07:57:47.230Z,11.37
2019-04-06T07:58:49.521Z,11.43
2019-04-06T07:59:47.218Z,11.54
2019-04-06T08:00:47.216Z,11.51
2019-04-06T08:01:48.634Z,11.60
2019-04-06T08:02:47.209Z,11.52
2019-04-06T08:03:47.200Z,11.54
2019-04-06T08:04:47.201Z,11.52
2019-04-06T08:05:47.196Z,11.54
2019-04-06T08:06:47.193Z,11.48
2019-04-06T08:07:47.184Z,11.48
2019-04-06T08:08:47.177Z,11.36
2019-04-06T08:09:47.177Z,11.44
2019-04-06T08:10:47.174Z,11.37
2019-04-06T08:11:47.164Z,11.36
2019-04-06T08:12:47.167Z,11.40
2019-04-06T08:13:47.186Z,11.37
2019-04-06T08:14:47.154Z,11.43
2019-04-06T08:15:47.148Z,11.41
2019-04-06T08:16:47.146Z,11.50
2019-04-06T08:17:47.255Z,11.52
2019-04-06T08:18:47.133Z,11.55
2019-04-06T08:19:47.332Z,11.55
2019-04-06T08:20:47.133Z,11.57
2019-04-06T08:22:47.114Z,11.65
2019-04-06T08:23:47.112Z,11.65
2019-04-06T08:24:47.140Z,11.75
2019-04-06T08:25:47.116Z,11.80
2019-04-06T08:26:47.102Z,11.88
2019-04-06T08:27:47.136Z,11.91
2019-04-06T08:28:47.097Z,11.97
2019-04-06T08:29:47.096Z,12.15
2019-04-06T08:30:47.213Z,12.12
2019-04-06T08:31:48.288Z,12.13
2019-04-06T08:32:47.080Z,12.21
2019-04-06T08:33:47.227Z,12.32
2019-04-06T08:34:47.067Z,12.28
2019-04-06T08:35:47.064Z,12.50
2019-04-06T08:36:47.063Z,12.45
2019-04-06T08:37:47.275Z,12.47
2019-04-06T08:38:47.067Z,12.47
2019-04-06T08:39:47.097Z,12.47
2019-04-06T08:40:47.108Z,12.43
2019-04-06T08:41:47.048Z,12.49
2019-04-06T08:42:47.040Z,12.37
2019-04-06T08:43:47.239Z,12.39
2019-04-06T08:44:47.036Z,12.47
2019-04-06T08:45:47.099Z,12.45
2019-04-06T08:46:47.059Z,12.47
2019-04-06T08:47:47.073Z,12.45
2019-04-06T08:48:47.023Z,12.49
2019-04-06T08:49:47.021Z,12.60
2019-04-06T08:50:47.021Z,12.67
2019-04-06T08:51:47.013Z,12.68
2019-04-06T08:52:47.014Z,12.67
2019-04-06T08:53:47.011Z,12.75
2019-04-06T08:54:47.011Z,12.86
2019-04-06T08:55:47.002Z,13.04
2019-04-06T08:57:47.009Z,13.30
2019-04-06T08:58:46.999Z,13.39
2019-04-06T08:59:47.007Z,13.59
2019-04-06T09:00:47.043Z,13.62
2019-04-06T09:01:46.991Z,13.63
2019-04-06T09:02:46.992Z,13.54
2019-04-06T09:04:46.993Z,13.78
2019-04-06T09:05:46.990Z,13.78
2019-04-06T09:06:47.091Z,13.86
2019-04-06T09:07:47.183Z,14.05
2019-04-06T09:08:47.187Z,14.08
2019-04-06T09:09:46.984Z,14.23
2019-04-06T09:11:46.987Z,14.53
2019-04-06T09:12:46.980Z,14.54
2019-04-06T09:13:46.979Z,14.63
2019-04-06T09:14:46.974Z,14.73
2019-04-06T09:15:46.979Z,14.85
2019-04-06T09:16:46.982Z,14.86
2019-04-06T09:17:46.975Z,14.79
2019-04-06T09:18:49.232Z,14.97
2019-04-06T09:19:46.972Z,15.15
2019-04-06T09:20:46.975Z,15.27
2019-04-06T09:21:46.974Z,15.29
2019-04-06T09:22:46.983Z,15.39
2019-04-06T09:23:47.062Z,15.44
2019-04-06T09:24:47.014Z,15.58
2019-04-06T09:25:47.188Z,15.72
2019-04-06T09:26:48.468Z,15.77
2019-04-06T09:27:46.972Z,15.77
2019-04-06T09:28:46.969Z,15.86
2019-04-06T09:29:46.968Z,16.00
2019-04-06T09:30:46.967Z,16.01
2019-04-06T09:31:46.966Z,16.00
2019-04-06T09:32:46.965Z,16.23
2019-04-06T09:33:46.969Z,16.31
2019-04-06T09:34:46.962Z,16.31
2019-04-06T09:35:46.964Z,16.17
2019-04-06T09:36:46.967Z,16.32
2019-04-06T09:37:46.961Z,16.32
2019-04-06T09:38:47.342Z,16.38
2019-04-06T09:39:46.963Z,16.36
2019-04-06T09:40:47.256Z,16.42
2019-04-06T09:41:46.959Z,16.24
2019-04-06T09:42:46.959Z,16.26
2019-04-06T09:43:46.961Z,16.31
2019-04-06T09:44:46.964Z,16.26
2019-04-06T09:45:47.166Z,16.35
2019-04-06T09:46:46.955Z,16.17
2019-04-06T09:47:47.186Z,16.09
2019-04-06T09:48:47.086Z,16.02
2019-04-06T09:49:46.958Z,16.32
2019-04-06T09:50:47.184Z,16.50
2019-04-06T09:51:46.956Z,16.33
2019-04-06T09:52:47.161Z,16.36
2019-04-06T09:53:46.961Z,16.43
2019-04-06T09:54:46.956Z,16.71
2019-04-06T09:55:47.298Z,16.86
2019-04-06T09:56:47.043Z,16.94
2019-04-06T09:57:46.985Z,17.19
2019-04-06T09:58:46.953Z,17.22
2019-04-06T09:59:48.451Z,17.52
2019-04-06T10:00:46.956Z,17.76
2019-04-06T10:01:46.954Z,17.90
2019-04-06T10:02:46.958Z,18.19
2019-04-06T10:03:46.956Z,18.47
2019-04-06T10:04:46.964Z,18.62
2019-04-06T10:05:46.965Z,18.50
2019-04-06T10:06:46.958Z,18.44
2019-04-06T10:07:46.959Z,18.59
2019-04-06T10:08:46.968Z,18.68
2019-04-06T10:09:46.969Z,18.49
2019-04-06T10:10:47.091Z,18.71
2019-04-06T10:11:46.972Z,18.95
2019-04-06T10:12:46.972Z,19.08
2019-04-06T10:13:46.968Z,18.95
2019-04-06T10:14:47.080Z,19.19
2019-04-06T10:15:46.968Z,19.33
2019-04-06T10:16:46.974Z,19.58
2019-04-06T10:17:47.185Z,19.77
2019-04-06T10:18:46.973Z,19.82
2019-04-06T10:19:46.971Z,19.73
2019-04-06T10:20:46.977Z,19.84
2019-04-06T10:21:46.978Z,20.04
2019-04-06T10:22:47.402Z,19.73
2019-04-06T10:23:46.978Z,19.84
2019-04-06T10:24:46.983Z,19.89
2019-04-06T10:25:47.207Z,20.09
2019-04-06T10:27:46.995Z,19.89
2019-04-06T10:28:46.994Z,20.11
2019-04-06T10:29:49.702Z,19.77
2019-04-06T10:31:46.998Z,19.77
2019-04-06T10:32:47.235Z,20.03
2019-04-06T10:33:47.278Z,20.41
2019-04-06T10:34:47.005Z,20.60
2019-04-06T10:35:47.013Z,20.81
2019-04-06T10:36:47.012Z,20.80
2019-04-06T10:37:47.017Z,20.81
2019-04-06T10:39:47.025Z,20.29
2019-04-06T10:41:47.025Z,19.84
2019-04-06T10:42:47.036Z,19.67
2019-04-06T10:43:47.037Z,19.59
2019-04-06T10:44:47.237Z,19.64
2019-04-06T10:45:47.044Z,19.81
2019-04-06T10:46:47.045Z,20.03
2019-04-06T10:47:47.046Z,20.28
2019-04-06T10:48:47.057Z,20.51
2019-04-06T10:49:47.088Z,20.62
2019-04-06T10:50:47.129Z,20.55
2019-04-06T10:51:47.067Z,20.31
2019-04-06T10:52:47.277Z,20.28
2019-04-06T10:53:47.079Z,20.21
2019-04-06T10:55:47.161Z,20.19
2019-04-06T10:56:47.091Z,20.28
2019-04-06T10:57:47.089Z,20.10
2019-04-06T10:58:47.295Z,20.14
2019-04-06T10:59:59.227Z,19.92
2019-04-06T11:00:47.306Z,19.91
2019-04-06T11:01:47.476Z,19.73
2019-04-06T11:03:47.118Z,20.22
2019-04-06T11:04:47.156Z,20.32
2019-04-06T11:06:47.141Z,20.72
2019-04-06T11:07:47.344Z,20.90
2019-04-06T11:08:47.151Z,21.15
2019-04-06T11:09:47.375Z,21.30
2019-04-06T11:10:47.317Z,21.11
2019-04-06T11:11:47.164Z,20.81
2019-04-06T11:12:47.174Z,20.40
2019-04-06T11:13:47.176Z,20.60
2019-04-06T11:14:47.677Z,20.65
2019-04-06T11:15:47.417Z,20.60
2019-04-06T11:16:48.274Z,20.66
2019-04-06T11:17:47.201Z,20.77
2019-04-06T11:18:47.208Z,20.93
2019-04-06T11:20:47.338Z,21.21
2019-04-06T11:22:47.240Z,21.64
2019-04-06T11:23:47.446Z,21.99
2019-04-06T11:24:47.494Z,22.20
2019-04-06T11:25:47.258Z,22.17
2019-04-06T11:26:47.541Z,22.32
2019-04-06T11:27:47.282Z,22.32
2019-04-06T11:28:47.321Z,22.54
2019-04-06T11:29:47.330Z,22.83
2019-04-06T11:30:47.305Z,22.73
2019-04-06T11:31:47.312Z,22.94
2019-04-06T11:32:47.324Z,23.12
2019-04-06T11:33:47.336Z,22.90
2019-04-06T11:34:47.464Z,22.87
2019-04-06T11:35:47.348Z,22.36
2019-04-06T11:36:47.356Z,22.07
2019-04-06T11:37:47.369Z,21.42
2019-04-06T11:38:47.577Z,21.24
2019-04-06T11:39:47.382Z,20.69
2019-04-06T11:40:47.644Z,20.32
2019-04-06T11:41:47.399Z,19.92
2019-04-06T11:43:47.412Z,19.63
2019-04-06T11:44:47.411Z,19.71
2019-04-06T11:45:47.416Z,19.64
2019-04-06T11:46:47.420Z,19.49
2019-04-06T11:47:48.210Z,19.27
2019-04-06T11:48:47.830Z,19.24
2019-04-06T11:49:47.657Z,19.24
2019-04-06T11:50:47.435Z,19.36
2019-04-06T11:51:47.441Z,19.33
2019-04-06T11:52:47.649Z,19.27
2019-04-06T11:53:47.452Z,19.29
2019-04-06T11:54:47.842Z,19.33
2019-04-06T11:55:47.456Z,19.33
2019-04-06T11:56:47.552Z,19.48
2019-04-06T11:58:47.486Z,19.89
2019-04-06T11:59:47.561Z,20.07
2019-04-06T12:00:47.476Z,20.24
2019-04-06T12:01:47.482Z,19.86
2019-04-06T12:02:47.489Z,19.92
2019-04-06T12:03:47.498Z,20.09
2019-04-06T12:04:47.701Z,20.48
2019-04-06T12:05:47.710Z,20.96
2019-04-06T12:06:47.510Z,21.42
2019-04-06T12:07:47.786Z,21.67
2019-04-06T12:08:47.529Z,22.06
2019-04-06T12:09:47.533Z,22.54
2019-04-06T12:10:47.540Z,23.13
2019-04-06T12:11:47.553Z,23.59
2019-04-06T12:12:47.556Z,23.71
2019-04-06T12:15:47.833Z,24.91
2019-04-06T12:17:47.813Z,25.40
2019-04-06T12:19:47.629Z,25.44
2019-04-06T12:20:47.643Z,25.75
2019-04-06T12:21:47.656Z,25.48
2019-04-06T12:23:47.674Z,24.58
2019-04-06T12:24:48.004Z,24.23
2019-04-06T12:25:47.698Z,24.16
2019-04-06T12:26:47.699Z,23.73
2019-04-06T12:27:47.712Z,23.56
2019-04-06T12:29:20.933Z,23.46
2019-04-06T12:29:47.726Z,23.50
2019-04-06T12:30:47.740Z,23.06
2019-04-06T12:31:47.744Z,23.05
2019-04-06T12:32:47.993Z,23.41
2019-04-06T12:33:47.813Z,23.48
2019-04-06T12:34:47.771Z,23.56
2019-04-06T12:35:47.783Z,23.92
2019-04-06T12:36:47.793Z,24.21
2019-04-06T12:37:47.838Z,24.18
2019-04-06T12:38:48.052Z,24.35
2019-04-06T12:39:52.998Z,24.14
2019-04-06T12:40:48.207Z,24.17
2019-04-06T12:41:47.852Z,24.30
2019-04-06T12:42:47.870Z,24.55
2019-04-06T12:43:47.882Z,24.55
2019-04-06T12:44:47.882Z,24.84
2019-04-06T12:45:48.187Z,24.81
2019-04-06T12:47:47.914Z,24.38
2019-04-06T12:48:47.927Z,24.17
2019-04-06T12:49:48.210Z,24.13
2019-04-06T12:50:48.218Z,23.98
2019-04-06T12:51:48.340Z,23.92
2019-04-06T12:52:48.160Z,23.69
2019-04-06T12:53:47.972Z,23.68
2019-04-06T12:54:47.976Z,23.40
2019-04-06T12:55:48.210Z,23.37
2019-04-06T12:56:48.299Z,23.08
2019-04-06T12:58:48.010Z,23.41
2019-04-06T12:59:48.219Z,23.63
2019-04-06T13:00:52.514Z,24.21
2019-04-06T13:01:48.043Z,24.61
2019-04-06T13:02:48.375Z,25.04
2019-04-06T13:03:48.412Z,25.55
2019-04-06T13:04:48.069Z,25.83
2019-04-06T13:05:48.223Z,25.80
2019-04-06T13:06:48.092Z,25.85
2019-04-06T13:07:48.099Z,25.36
2019-04-06T13:08:48.108Z,25.69
2019-04-06T13:09:48.122Z,25.81
2019-04-06T13:10:48.135Z,25.66
2019-04-06T13:11:48.139Z,25.73
2019-04-06T13:12:48.375Z,25.55
2019-04-06T13:13:48.209Z,25.33
2019-04-06T13:14:48.171Z,24.76
2019-04-06T13:15:48.185Z,24.38
2019-04-06T13:16:48.336Z,23.83
2019-04-06T13:17:48.196Z,23.58
2019-04-06T13:19:48.717Z,23.34
2019-04-06T13:20:48.648Z,22.84
2019-04-06T13:21:48.254Z,22.80
2019-04-06T13:22:48.239Z,22.44
2019-04-06T13:23:48.577Z,22.23
2019-04-06T13:24:48.319Z,22.11
2019-04-06T13:25:48.381Z,21.85
2019-04-06T13:26:48.340Z,21.75
2019-04-06T13:27:49.374Z,21.57
2019-04-06T13:28:48.282Z,21.29
2019-04-06T13:29:48.289Z,21.72
2019-04-06T13:30:49.689Z,22.35
2019-04-06T13:31:48.302Z,23.02
2019-04-06T13:32:48.411Z,23.39
2019-04-06T13:33:48.311Z,23.44
2019-04-06T13:34:48.322Z,23.55
2019-04-06T13:35:48.327Z,23.58
2019-04-06T13:37:48.348Z,23.96
2019-04-06T13:38:48.361Z,24.28
2019-04-06T13:39:48.541Z,24.03
2019-04-06T13:40:48.367Z,23.69
2019-04-06T13:41:48.437Z,23.51
2019-04-06T13:42:48.380Z,23.58
2019-04-06T13:43:48.389Z,23.80
2019-04-06T13:44:48.399Z,24.23
2019-04-06T13:45:48.403Z,24.24
2019-04-06T13:46:48.416Z,24.36
2019-04-06T13:47:48.424Z,24.55
2019-04-06T13:48:48.432Z,24.21
2019-04-06T13:49:48.671Z,23.71
2019-04-06T13:50:48.445Z,23.28
2019-04-06T13:51:48.454Z,22.94
2019-04-06T13:52:48.467Z,22.53
2019-04-06T13:53:48.468Z,22.44
2019-04-06T13:54:48.691Z,22.14
2019-04-06T13:55:48.500Z,22.13
2019-04-06T13:56:48.747Z,22.15
2019-04-06T13:58:48.501Z,21.95
2019-04-06T13:59:48.825Z,22.04
2019-04-06T14:00:49.070Z,22.14
2019-04-06T14:03:48.539Z,23.00